sensor_id;sensor_type;location;lat;lon;timestamp;P1;durP1;ratioP1;P2;durP2;ratioP2
53666;SDS011;39568;51.026;5.468;2022-08-19T00:01:26;82.68;;;51.45;;
53666;SDS011;39568;51.026;5.468;2022-08-19T00:03:54;94.20;;;58.90;;
53666;SDS011;39568;51.026;5.468;2022-08-19T00:06:26;108.30;;;59.38;;
53666;SDS011;39568;51.026;5.468;2022-08-19T00:08:54;280.83;;;151.55;;
53666;SDS011;39568;51.026;5.468;2022-08-19T00:11:23;181.23;;;99.65;;
53666;SDS011;39568;51.026;5.468;2022-08-19T00:13:50;94.05;;;60.03;;
53666;SDS011;39568;51.026;5.468;2022-08-19T00:16:17;60.05;;;39.95;;
53666;SDS011;39568;51.026;5.468;2022-08-19T00:18:45;44.13;;;34.40;;
53666;SDS011;39568;51.026;5.468;2022-08-19T00:21:13;29.42;;;25.98;;
53666;SDS011;39568;51.026;5.468;2022-08-19T00:23:39;37.92;;;25.40;;
53666;SDS011;39568;51.026;5.468;2022-08-19T00:26:10;35.58;;;25.65;;
53666;SDS011;39568;51.026;5.468;2022-08-19T00:28:39;37.28;;;24.85;;
53666;SDS011;39568;51.026;5.468;2022-08-19T00:31:06;30.85;;;24.95;;
53666;SDS011;39568;51.026;5.468;2022-08-19T00:33:34;26.10;;;23.30;;
53666;SDS011;39568;51.026;5.468;2022-08-19T00:36:02;24.95;;;21.38;;
53666;SDS011;39568;51.026;5.468;2022-08-19T00:38:34;23.35;;;21.00;;
53666;SDS011;39568;51.026;5.468;2022-08-19T00:41:09;26.33;;;23.50;;
53666;SDS011;39568;51.026;5.468;2022-08-19T00:43:40;31.33;;;26.70;;
53666;SDS011;39568;51.026;5.468;2022-08-19T00:46:09;35.00;;;25.50;;
53666;SDS011;39568;51.026;5.468;2022-08-19T00:48:36;28.55;;;25.25;;
53666;SDS011;39568;51.026;5.468;2022-08-19T00:51:08;30.00;;;26.60;;
53666;SDS011;39568;51.026;5.468;2022-08-19T00:53:45;34.85;;;28.98;;
53666;SDS011;39568;51.026;5.468;2022-08-19T00:56:13;40.85;;;31.05;;
53666;SDS011;39568;51.026;5.468;2022-08-19T00:58:42;34.10;;;29.08;;
53666;SDS011;39568;51.026;5.468;2022-08-19T01:01:10;43.75;;;34.05;;
53666;SDS011;39568;51.026;5.468;2022-08-19T01:03:44;37.25;;;32.33;;
53666;SDS011;39568;51.026;5.468;2022-08-19T01:06:13;41.17;;;29.15;;
53666;SDS011;39568;51.026;5.468;2022-08-19T01:08:40;36.67;;;32.35;;
53666;SDS011;39568;51.026;5.468;2022-08-19T01:11:07;40.03;;;31.67;;
53666;SDS011;39568;51.026;5.468;2022-08-19T01:13:34;46.05;;;31.92;;
53666;SDS011;39568;51.026;5.468;2022-08-19T01:16:06;39.92;;;33.75;;
53666;SDS011;39568;51.026;5.468;2022-08-19T01:18:40;42.70;;;32.83;;
53666;SDS011;39568;51.026;5.468;2022-08-19T01:21:15;39.25;;;32.42;;
53666;SDS011;39568;51.026;5.468;2022-08-19T01:24:01;46.42;;;35.97;;
53666;SDS011;39568;51.026;5.468;2022-08-19T01:26:28;49.70;;;38.35;;
53666;SDS011;39568;51.026;5.468;2022-08-19T01:28:56;45.45;;;39.08;;
53666;SDS011;39568;51.026;5.468;2022-08-19T01:31:30;51.63;;;40.65;;
53666;SDS011;39568;51.026;5.468;2022-08-19T01:33:57;51.33;;;42.28;;
53666;SDS011;39568;51.026;5.468;2022-08-19T01:36:25;58.08;;;41.97;;
53666;SDS011;39568;51.026;5.468;2022-08-19T01:38:57;50.80;;;38.45;;
53666;SDS011;39568;51.026;5.468;2022-08-19T01:41:30;47.90;;;39.20;;
53666;SDS011;39568;51.026;5.468;2022-08-19T01:44:03;51.72;;;38.65;;
53666;SDS011;39568;51.026;5.468;2022-08-19T01:46:32;54.38;;;40.78;;
53666;SDS011;39568;51.026;5.468;2022-08-19T01:49:01;57.58;;;40.33;;
53666;SDS011;39568;51.026;5.468;2022-08-19T01:51:29;58.63;;;43.45;;
53666;SDS011;39568;51.026;5.468;2022-08-19T01:53:57;60.28;;;42.42;;
53666;SDS011;39568;51.026;5.468;2022-08-19T01:56:24;61.28;;;42.35;;
53666;SDS011;39568;51.026;5.468;2022-08-19T01:59:08;70.03;;;44.42;;
53666;SDS011;39568;51.026;5.468;2022-08-19T02:01:38;63.10;;;41.85;;
53666;SDS011;39568;51.026;5.468;2022-08-19T02:04:05;63.03;;;42.63;;
53666;SDS011;39568;51.026;5.468;2022-08-19T02:06:32;58.08;;;42.30;;
53666;SDS011;39568;51.026;5.468;2022-08-19T02:09:00;67.07;;;44.67;;
53666;SDS011;39568;51.026;5.468;2022-08-19T02:11:38;60.22;;;44.22;;
53666;SDS011;39568;51.026;5.468;2022-08-19T02:14:06;62.47;;;44.42;;
53666;SDS011;39568;51.026;5.468;2022-08-19T02:16:33;61.40;;;43.33;;
53666;SDS011;39568;51.026;5.468;2022-08-19T02:19:01;67.43;;;43.53;;
53666;SDS011;39568;51.026;5.468;2022-08-19T02:21:28;72.45;;;47.35;;
53666;SDS011;39568;51.026;5.468;2022-08-19T02:23:55;64.38;;;45.30;;
53666;SDS011;39568;51.026;5.468;2022-08-19T02:26:25;61.88;;;42.03;;
53666;SDS011;39568;51.026;5.468;2022-08-19T02:28:58;66.22;;;45.05;;
53666;SDS011;39568;51.026;5.468;2022-08-19T02:31:26;71.78;;;47.42;;
53666;SDS011;39568;51.026;5.468;2022-08-19T02:33:53;64.78;;;43.03;;
53666;SDS011;39568;51.026;5.468;2022-08-19T02:36:32;78.50;;;47.05;;
53666;SDS011;39568;51.026;5.468;2022-08-19T02:39:05;72.07;;;44.25;;
53666;SDS011;39568;51.026;5.468;2022-08-19T02:41:31;62.38;;;42.78;;
53666;SDS011;39568;51.026;5.468;2022-08-19T02:44:05;67.75;;;48.40;;
53666;SDS011;39568;51.026;5.468;2022-08-19T02:46:33;59.90;;;41.80;;
53666;SDS011;39568;51.026;5.468;2022-08-19T02:49:05;57.70;;;41.67;;
53666;SDS011;39568;51.026;5.468;2022-08-19T02:51:46;63.15;;;40.97;;
53666;SDS011;39568;51.026;5.468;2022-08-19T02:54:13;64.50;;;37.83;;
53666;SDS011;39568;51.026;5.468;2022-08-19T02:56:42;60.75;;;39.95;;
53666;SDS011;39568;51.026;5.468;2022-08-19T02:59:11;63.15;;;40.72;;
53666;SDS011;39568;51.026;5.468;2022-08-19T03:01:39;60.05;;;38.45;;
53666;SDS011;39568;51.026;5.468;2022-08-19T03:04:10;61.17;;;39.55;;
53666;SDS011;39568;51.026;5.468;2022-08-19T03:06:39;69.25;;;40.08;;
53666;SDS011;39568;51.026;5.468;2022-08-19T03:09:08;64.25;;;40.92;;
53666;SDS011;39568;51.026;5.468;2022-08-19T03:11:36;63.45;;;43.17;;
53666;SDS011;39568;51.026;5.468;2022-08-19T03:14:05;69.32;;;42.20;;
53666;SDS011;39568;51.026;5.468;2022-08-19T03:16:35;65.97;;;41.40;;
53666;SDS011;39568;51.026;5.468;2022-08-19T03:19:08;69.18;;;40.55;;
53666;SDS011;39568;51.026;5.468;2022-08-19T03:21:35;71.53;;;43.30;;
53666;SDS011;39568;51.026;5.468;2022-08-19T03:24:02;79.00;;;42.95;;
53666;SDS011;39568;51.026;5.468;2022-08-19T03:26:32;70.87;;;42.80;;
53666;SDS011;39568;51.026;5.468;2022-08-19T03:29:00;86.28;;;45.88;;
53666;SDS011;39568;51.026;5.468;2022-08-19T03:31:28;77.72;;;46.20;;
53666;SDS011;39568;51.026;5.468;2022-08-19T03:33:57;81.90;;;45.30;;
53666;SDS011;39568;51.026;5.468;2022-08-19T03:36:25;76.20;;;45.33;;
53666;SDS011;39568;51.026;5.468;2022-08-19T03:38:54;88.32;;;49.90;;
53666;SDS011;39568;51.026;5.468;2022-08-19T03:41:36;97.10;;;49.35;;
53666;SDS011;39568;51.026;5.468;2022-08-19T03:44:06;102.15;;;52.25;;
53666;SDS011;39568;51.026;5.468;2022-08-19T03:46:33;102.00;;;54.03;;
53666;SDS011;39568;51.026;5.468;2022-08-19T03:49:13;96.45;;;50.92;;
53666;SDS011;39568;51.026;5.468;2022-08-19T03:51:40;101.15;;;52.78;;
53666;SDS011;39568;51.026;5.468;2022-08-19T03:54:10;99.22;;;52.72;;
53666;SDS011;39568;51.026;5.468;2022-08-19T03:56:38;98.75;;;51.45;;
53666;SDS011;39568;51.026;5.468;2022-08-19T03:59:07;94.90;;;48.38;;
53666;SDS011;39568;51.026;5.468;2022-08-19T04:01:36;100.25;;;49.50;;
53666;SDS011;39568;51.026;5.468;2022-08-19T04:04:03;99.20;;;50.95;;
53666;SDS011;39568;51.026;5.468;2022-08-19T04:06:32;112.72;;;54.03;;
53666;SDS011;39568;51.026;5.468;2022-08-19T04:09:01;117.70;;;54.13;;
53666;SDS011;39568;51.026;5.468;2022-08-19T04:11:31;113.15;;;56.97;;
53666;SDS011;39568;51.026;5.468;2022-08-19T04:14:00;114.45;;;52.25;;
53666;SDS011;39568;51.026;5.468;2022-08-19T04:16:33;111.38;;;53.97;;
53666;SDS011;39568;51.026;5.468;2022-08-19T04:19:01;107.45;;;55.17;;
53666;SDS011;39568;51.026;5.468;2022-08-19T04:21:31;110.85;;;53.70;;
53666;SDS011;39568;51.026;5.468;2022-08-19T04:24:01;109.63;;;53.35;;
53666;SDS011;39568;51.026;5.468;2022-08-19T04:26:33;110.50;;;50.85;;
53666;SDS011;39568;51.026;5.468;2022-08-19T04:29:05;110.97;;;52.97;;
53666;SDS011;39568;51.026;5.468;2022-08-19T04:31:34;118.18;;;55.20;;
53666;SDS011;39568;51.026;5.468;2022-08-19T04:34:02;104.78;;;50.28;;
53666;SDS011;39568;51.026;5.468;2022-08-19T04:36:41;110.28;;;55.67;;
53666;SDS011;39568;51.026;5.468;2022-08-19T04:39:13;94.40;;;48.08;;
53666;SDS011;39568;51.026;5.468;2022-08-19T04:41:43;104.70;;;51.65;;
53666;SDS011;39568;51.026;5.468;2022-08-19T04:44:35;97.85;;;49.30;;
53666;SDS011;39568;51.026;5.468;2022-08-19T04:47:05;100.38;;;49.17;;
53666;SDS011;39568;51.026;5.468;2022-08-19T04:49:32;94.10;;;48.85;;
53666;SDS011;39568;51.026;5.468;2022-08-19T04:54:33;96.30;;;49.35;;
53666;SDS011;39568;51.026;5.468;2022-08-19T04:57:01;99.57;;;48.80;;
53666;SDS011;39568;51.026;5.468;2022-08-19T04:59:36;97.03;;;49.22;;
53666;SDS011;39568;51.026;5.468;2022-08-19T05:02:04;98.20;;;46.78;;
53666;SDS011;39568;51.026;5.468;2022-08-19T05:04:33;102.13;;;48.83;;
53666;SDS011;39568;51.026;5.468;2022-08-19T05:07:05;99.63;;;49.50;;
53666;SDS011;39568;51.026;5.468;2022-08-19T05:09:39;98.60;;;50.75;;
53666;SDS011;39568;51.026;5.468;2022-08-19T05:12:07;109.38;;;48.70;;
53666;SDS011;39568;51.026;5.468;2022-08-19T05:14:34;107.68;;;49.67;;
53666;SDS011;39568;51.026;5.468;2022-08-19T05:17:05;105.10;;;49.10;;
53666;SDS011;39568;51.026;5.468;2022-08-19T05:19:32;102.35;;;48.72;;
53666;SDS011;39568;51.026;5.468;2022-08-19T05:22:18;103.35;;;45.50;;
53666;SDS011;39568;51.026;5.468;2022-08-19T05:25:04;98.68;;;46.33;;
53666;SDS011;39568;51.026;5.468;2022-08-19T05:27:33;98.55;;;46.60;;
53666;SDS011;39568;51.026;5.468;2022-08-19T05:30:00;100.20;;;47.53;;
53666;SDS011;39568;51.026;5.468;2022-08-19T05:32:28;108.13;;;49.33;;
53666;SDS011;39568;51.026;5.468;2022-08-19T05:34:55;88.70;;;42.22;;
53666;SDS011;39568;51.026;5.468;2022-08-19T05:37:26;84.03;;;43.17;;
53666;SDS011;39568;51.026;5.468;2022-08-19T05:39:53;90.03;;;35.25;;
53666;SDS011;39568;51.026;5.468;2022-08-19T05:42:21;81.10;;;40.72;;
53666;SDS011;39568;51.026;5.468;2022-08-19T05:44:48;89.25;;;42.63;;
53666;SDS011;39568;51.026;5.468;2022-08-19T05:47:16;85.18;;;40.03;;
53666;SDS011;39568;51.026;5.468;2022-08-19T05:49:45;74.75;;;32.83;;
53666;SDS011;39568;51.026;5.468;2022-08-19T05:52:15;79.97;;;39.75;;
53666;SDS011;39568;51.026;5.468;2022-08-19T05:54:43;71.88;;;33.08;;
53666;SDS011;39568;51.026;5.468;2022-08-19T05:57:12;63.42;;;32.78;;
53666;SDS011;39568;51.026;5.468;2022-08-19T05:59:40;60.30;;;28.38;;
53666;SDS011;39568;51.026;5.468;2022-08-19T06:02:07;58.95;;;30.60;;
53666;SDS011;39568;51.026;5.468;2022-08-19T06:04:39;61.08;;;31.15;;
53666;SDS011;39568;51.026;5.468;2022-08-19T06:07:07;42.35;;;19.60;;
53666;SDS011;39568;51.026;5.468;2022-08-19T06:09:35;65.35;;;32.75;;
53666;SDS011;39568;51.026;5.468;2022-08-19T06:12:06;61.25;;;37.58;;
53666;SDS011;39568;51.026;5.468;2022-08-19T06:14:35;59.10;;;33.38;;
53666;SDS011;39568;51.026;5.468;2022-08-19T06:17:02;57.47;;;32.58;;
53666;SDS011;39568;51.026;5.468;2022-08-19T06:19:29;74.03;;;36.78;;
53666;SDS011;39568;51.026;5.468;2022-08-19T06:21:58;67.13;;;34.28;;
53666;SDS011;39568;51.026;5.468;2022-08-19T06:24:31;69.80;;;33.50;;
53666;SDS011;39568;51.026;5.468;2022-08-19T06:26:58;59.22;;;32.10;;
53666;SDS011;39568;51.026;5.468;2022-08-19T06:29:28;58.03;;;28.92;;
53666;SDS011;39568;51.026;5.468;2022-08-19T06:31:57;62.30;;;29.98;;
53666;SDS011;39568;51.026;5.468;2022-08-19T06:34:27;48.97;;;23.02;;
53666;SDS011;39568;51.026;5.468;2022-08-19T06:36:56;50.88;;;25.65;;
53666;SDS011;39568;51.026;5.468;2022-08-19T06:39:26;63.88;;;34.40;;
53666;SDS011;39568;51.026;5.468;2022-08-19T06:41:59;64.93;;;28.45;;
53666;SDS011;39568;51.026;5.468;2022-08-19T06:44:32;79.03;;;37.22;;
53666;SDS011;39568;51.026;5.468;2022-08-19T06:47:08;69.35;;;32.55;;
53666;SDS011;39568;51.026;5.468;2022-08-19T06:49:36;68.15;;;38.25;;
53666;SDS011;39568;51.026;5.468;2022-08-19T06:52:04;54.25;;;27.58;;
53666;SDS011;39568;51.026;5.468;2022-08-19T06:54:31;64.45;;;36.28;;
53666;SDS011;39568;51.026;5.468;2022-08-19T06:56:58;58.95;;;29.27;;
53666;SDS011;39568;51.026;5.468;2022-08-19T06:59:29;60.80;;;32.65;;
53666;SDS011;39568;51.026;5.468;2022-08-19T07:01:58;55.30;;;30.45;;
53666;SDS011;39568;51.026;5.468;2022-08-19T07:04:27;62.20;;;34.42;;
53666;SDS011;39568;51.026;5.468;2022-08-19T07:06:56;70.65;;;31.35;;
53666;SDS011;39568;51.026;5.468;2022-08-19T07:09:25;66.00;;;35.17;;
53666;SDS011;39568;51.026;5.468;2022-08-19T07:11:52;48.30;;;25.80;;
53666;SDS011;39568;51.026;5.468;2022-08-19T07:14:20;51.40;;;27.95;;
53666;SDS011;39568;51.026;5.468;2022-08-19T07:16:54;49.72;;;26.73;;
53666;SDS011;39568;51.026;5.468;2022-08-19T07:19:25;47.42;;;24.98;;
53666;SDS011;39568;51.026;5.468;2022-08-19T07:21:54;46.35;;;27.10;;
53666;SDS011;39568;51.026;5.468;2022-08-19T07:24:22;57.13;;;29.77;;
53666;SDS011;39568;51.026;5.468;2022-08-19T07:26:51;39.88;;;21.73;;
53666;SDS011;39568;51.026;5.468;2022-08-19T07:29:19;44.90;;;26.20;;
53666;SDS011;39568;51.026;5.468;2022-08-19T07:31:48;46.42;;;25.98;;
53666;SDS011;39568;51.026;5.468;2022-08-19T07:34:16;47.72;;;26.10;;
53666;SDS011;39568;51.026;5.468;2022-08-19T07:36:44;51.55;;;27.00;;
53666;SDS011;39568;51.026;5.468;2022-08-19T07:39:17;41.33;;;24.80;;
53666;SDS011;39568;51.026;5.468;2022-08-19T07:41:46;48.20;;;23.77;;
53666;SDS011;39568;51.026;5.468;2022-08-19T07:44:14;45.45;;;25.15;;
53666;SDS011;39568;51.026;5.468;2022-08-19T07:46:43;33.90;;;17.02;;
53666;SDS011;39568;51.026;5.468;2022-08-19T07:49:11;30.38;;;20.05;;
53666;SDS011;39568;51.026;5.468;2022-08-19T07:51:44;30.88;;;16.70;;
53666;SDS011;39568;51.026;5.468;2022-08-19T07:54:16;42.13;;;23.27;;
53666;SDS011;39568;51.026;5.468;2022-08-19T07:56:46;41.00;;;21.85;;
53666;SDS011;39568;51.026;5.468;2022-08-19T07:59:16;24.60;;;16.67;;
53666;SDS011;39568;51.026;5.468;2022-08-19T08:01:44;44.83;;;21.80;;
53666;SDS011;39568;51.026;5.468;2022-08-19T08:04:11;29.08;;;18.63;;
53666;SDS011;39568;51.026;5.468;2022-08-19T08:06:57;35.38;;;20.90;;
53666;SDS011;39568;51.026;5.468;2022-08-19T08:09:43;31.50;;;16.45;;
53666;SDS011;39568;51.026;5.468;2022-08-19T08:12:13;30.75;;;17.88;;
53666;SDS011;39568;51.026;5.468;2022-08-19T08:14:46;33.05;;;20.33;;
53666;SDS011;39568;51.026;5.468;2022-08-19T08:17:15;25.45;;;17.92;;
53666;SDS011;39568;51.026;5.468;2022-08-19T08:19:44;23.52;;;13.20;;
53666;SDS011;39568;51.026;5.468;2022-08-19T08:22:14;21.77;;;13.15;;
53666;SDS011;39568;51.026;5.468;2022-08-19T08:24:57;21.58;;;11.77;;
53666;SDS011;39568;51.026;5.468;2022-08-19T08:30:05;15.93;;;10.25;;
53666;SDS011;39568;51.026;5.468;2022-08-19T08:32:34;22.92;;;13.77;;
53666;SDS011;39568;51.026;5.468;2022-08-19T08:35:01;21.88;;;12.15;;
53666;SDS011;39568;51.026;5.468;2022-08-19T08:37:30;22.75;;;13.25;;
53666;SDS011;39568;51.026;5.468;2022-08-19T08:39:57;20.38;;;13.00;;
53666;SDS011;39568;51.026;5.468;2022-08-19T08:42:28;20.02;;;11.95;;
53666;SDS011;39568;51.026;5.468;2022-08-19T08:44:58;15.05;;;8.68;;
53666;SDS011;39568;51.026;5.468;2022-08-19T08:47:29;21.42;;;11.50;;
53666;SDS011;39568;51.026;5.468;2022-08-19T08:50:03;20.20;;;11.38;;
53666;SDS011;39568;51.026;5.468;2022-08-19T08:52:37;23.38;;;12.63;;
53666;SDS011;39568;51.026;5.468;2022-08-19T08:55:22;18.83;;;11.43;;
53666;SDS011;39568;51.026;5.468;2022-08-19T08:57:52;34.90;;;13.52;;
53666;SDS011;39568;51.026;5.468;2022-08-19T09:00:26;18.60;;;11.95;;
53666;SDS011;39568;51.026;5.468;2022-08-19T09:02:56;14.38;;;9.07;;
53666;SDS011;39568;51.026;5.468;2022-08-19T09:05:26;18.00;;;10.95;;
53666;SDS011;39568;51.026;5.468;2022-08-19T09:08:02;18.02;;;11.10;;
53666;SDS011;39568;51.026;5.468;2022-08-19T09:10:34;18.15;;;11.23;;
53666;SDS011;39568;51.026;5.468;2022-08-19T09:13:11;17.20;;;10.75;;
53666;SDS011;39568;51.026;5.468;2022-08-19T09:15:46;14.57;;;9.88;;
53666;SDS011;39568;51.026;5.468;2022-08-19T09:18:18;20.73;;;11.80;;
53666;SDS011;39568;51.026;5.468;2022-08-19T09:20:48;12.23;;;9.52;;
53666;SDS011;39568;51.026;5.468;2022-08-19T09:23:17;14.13;;;9.52;;
53666;SDS011;39568;51.026;5.468;2022-08-19T09:25:45;26.38;;;8.93;;
53666;SDS011;39568;51.026;5.468;2022-08-19T09:28:12;17.70;;;10.52;;
53666;SDS011;39568;51.026;5.468;2022-08-19T09:30:39;14.57;;;9.35;;
53666;SDS011;39568;51.026;5.468;2022-08-19T09:33:07;16.20;;;8.30;;
53666;SDS011;39568;51.026;5.468;2022-08-19T09:35:34;16.48;;;9.27;;
53666;SDS011;39568;51.026;5.468;2022-08-19T09:38:02;12.43;;;6.90;;
53666;SDS011;39568;51.026;5.468;2022-08-19T09:40:30;9.40;;;7.88;;
53666;SDS011;39568;51.026;5.468;2022-08-19T09:42:58;10.80;;;6.38;;
53666;SDS011;39568;51.026;5.468;2022-08-19T09:45:27;8.20;;;6.15;;
53666;SDS011;39568;51.026;5.468;2022-08-19T09:47:55;16.83;;;10.57;;
53666;SDS011;39568;51.026;5.468;2022-08-19T09:50:23;21.00;;;7.50;;
53666;SDS011;39568;51.026;5.468;2022-08-19T09:52:50;8.30;;;5.97;;
53666;SDS011;39568;51.026;5.468;2022-08-19T09:55:25;10.48;;;5.63;;
53666;SDS011;39568;51.026;5.468;2022-08-19T09:57:54;6.80;;;4.70;;
53666;SDS011;39568;51.026;5.468;2022-08-19T10:00:22;5.22;;;4.72;;
53666;SDS011;39568;51.026;5.468;2022-08-19T10:02:53;5.07;;;4.25;;
53666;SDS011;39568;51.026;5.468;2022-08-19T10:05:20;9.40;;;4.20;;
53666;SDS011;39568;51.026;5.468;2022-08-19T10:08:04;4.07;;;3.58;;
53666;SDS011;39568;51.026;5.468;2022-08-19T10:10:34;4.63;;;4.22;;
53666;SDS011;39568;51.026;5.468;2022-08-19T10:13:04;8.68;;;5.82;;
53666;SDS011;39568;51.026;5.468;2022-08-19T10:15:31;10.65;;;6.32;;
53666;SDS011;39568;51.026;5.468;2022-08-19T10:17:58;8.10;;;4.93;;
53666;SDS011;39568;51.026;5.468;2022-08-19T10:20:25;5.95;;;5.45;;
53666;SDS011;39568;51.026;5.468;2022-08-19T10:22:52;4.40;;;4.03;;
53666;SDS011;39568;51.026;5.468;2022-08-19T10:25:19;8.00;;;4.57;;
53666;SDS011;39568;51.026;5.468;2022-08-19T10:27:46;8.48;;;5.88;;
53666;SDS011;39568;51.026;5.468;2022-08-19T10:30:20;9.02;;;5.05;;
53666;SDS011;39568;51.026;5.468;2022-08-19T10:32:47;8.65;;;7.53;;
53666;SDS011;39568;51.026;5.468;2022-08-19T10:35:14;11.15;;;5.30;;
53666;SDS011;39568;51.026;5.468;2022-08-19T10:37:41;4.88;;;4.47;;
53666;SDS011;39568;51.026;5.468;2022-08-19T10:40:09;4.63;;;3.72;;
53666;SDS011;39568;51.026;5.468;2022-08-19T10:42:36;7.03;;;4.70;;
53666;SDS011;39568;51.026;5.468;2022-08-19T10:45:04;7.20;;;4.07;;
53666;SDS011;39568;51.026;5.468;2022-08-19T10:47:36;3.13;;;2.67;;
53666;SDS011;39568;51.026;5.468;2022-08-19T10:50:03;6.07;;;3.45;;
53666;SDS011;39568;51.026;5.468;2022-08-19T10:52:49;6.53;;;3.72;;
53666;SDS011;39568;51.026;5.468;2022-08-19T10:55:22;5.35;;;3.65;;
53666;SDS011;39568;51.026;5.468;2022-08-19T10:58:11;4.97;;;4.47;;
53666;SDS011;39568;51.026;5.468;2022-08-19T11:00:38;7.55;;;4.18;;
53666;SDS011;39568;51.026;5.468;2022-08-19T11:03:07;10.85;;;4.57;;
53666;SDS011;39568;51.026;5.468;2022-08-19T11:05:34;9.60;;;5.85;;
53666;SDS011;39568;51.026;5.468;2022-08-19T11:08:06;5.22;;;4.15;;
53666;SDS011;39568;51.026;5.468;2022-08-19T11:10:36;7.47;;;4.13;;
53666;SDS011;39568;51.026;5.468;2022-08-19T11:13:10;9.68;;;4.13;;
53666;SDS011;39568;51.026;5.468;2022-08-19T11:15:37;9.50;;;3.78;;
53666;SDS011;39568;51.026;5.468;2022-08-19T11:18:08;4.13;;;2.80;;
53666;SDS011;39568;51.026;5.468;2022-08-19T11:20:35;10.73;;;4.88;;
53666;SDS011;39568;51.026;5.468;2022-08-19T11:23:09;4.22;;;3.83;;
53666;SDS011;39568;51.026;5.468;2022-08-19T11:25:37;4.07;;;3.70;;
53666;SDS011;39568;51.026;5.468;2022-08-19T11:28:04;3.80;;;3.38;;
53666;SDS011;39568;51.026;5.468;2022-08-19T11:30:31;6.93;;;3.58;;
53666;SDS011;39568;51.026;5.468;2022-08-19T11:32:59;6.70;;;2.92;;
53666;SDS011;39568;51.026;5.468;2022-08-19T11:35:28;5.88;;;3.30;;
53666;SDS011;39568;51.026;5.468;2022-08-19T11:37:56;9.18;;;3.33;;
53666;SDS011;39568;51.026;5.468;2022-08-19T11:40:26;4.57;;;4.18;;
53666;SDS011;39568;51.026;5.468;2022-08-19T11:43:02;3.53;;;3.30;;
53666;SDS011;39568;51.026;5.468;2022-08-19T11:45:37;6.20;;;3.28;;
53666;SDS011;39568;51.026;5.468;2022-08-19T11:48:04;6.38;;;4.47;;
53666;SDS011;39568;51.026;5.468;2022-08-19T11:50:33;6.07;;;3.55;;
53666;SDS011;39568;51.026;5.468;2022-08-19T11:53:00;5.00;;;3.30;;
53666;SDS011;39568;51.026;5.468;2022-08-19T11:55:26;3.80;;;3.47;;
53666;SDS011;39568;51.026;5.468;2022-08-19T11:58:04;4.53;;;2.92;;
53666;SDS011;39568;51.026;5.468;2022-08-19T12:00:32;7.97;;;2.85;;
53666;SDS011;39568;51.026;5.468;2022-08-19T12:03:00;4.93;;;3.00;;
53666;SDS011;39568;51.026;5.468;2022-08-19T12:05:37;3.10;;;2.72;;
53666;SDS011;39568;51.026;5.468;2022-08-19T12:08:09;4.03;;;2.60;;
53666;SDS011;39568;51.026;5.468;2022-08-19T12:10:38;4.45;;;3.20;;
53666;SDS011;39568;51.026;5.468;2022-08-19T12:13:06;3.50;;;2.97;;
53666;SDS011;39568;51.026;5.468;2022-08-19T12:15:35;1.95;;;1.85;;
53666;SDS011;39568;51.026;5.468;2022-08-19T12:18:05;3.08;;;2.40;;
53666;SDS011;39568;51.026;5.468;2022-08-19T12:20:33;9.48;;;2.42;;
53666;SDS011;39568;51.026;5.468;2022-08-19T12:23:02;2.20;;;1.77;;
53666;SDS011;39568;51.026;5.468;2022-08-19T12:25:29;5.13;;;2.53;;
53666;SDS011;39568;51.026;5.468;2022-08-19T12:27:57;3.17;;;2.45;;
53666;SDS011;39568;51.026;5.468;2022-08-19T12:30:24;2.47;;;2.28;;
53666;SDS011;39568;51.026;5.468;2022-08-19T12:32:52;3.58;;;2.80;;
53666;SDS011;39568;51.026;5.468;2022-08-19T12:35:19;2.13;;;1.95;;
53666;SDS011;39568;51.026;5.468;2022-08-19T12:37:46;7.82;;;3.60;;
53666;SDS011;39568;51.026;5.468;2022-08-19T12:40:15;2.60;;;2.50;;
53666;SDS011;39568;51.026;5.468;2022-08-19T12:42:42;8.90;;;2.97;;
53666;SDS011;39568;51.026;5.468;2022-08-19T12:45:22;6.20;;;3.28;;
53666;SDS011;39568;51.026;5.468;2022-08-19T12:47:53;3.45;;;1.65;;
53666;SDS011;39568;51.026;5.468;2022-08-19T12:50:20;4.47;;;2.95;;
53666;SDS011;39568;51.026;5.468;2022-08-19T12:52:50;5.13;;;4.32;;
53666;SDS011;39568;51.026;5.468;2022-08-19T12:55:21;6.40;;;3.28;;
53666;SDS011;39568;51.026;5.468;2022-08-19T13:00:17;8.30;;;2.10;;
53666;SDS011;39568;51.026;5.468;2022-08-19T13:02:47;16.27;;;2.88;;
53666;SDS011;39568;51.026;5.468;2022-08-19T13:05:16;5.53;;;2.63;;
53666;SDS011;39568;51.026;5.468;2022-08-19T13:07:47;4.10;;;2.50;;
53666;SDS011;39568;51.026;5.468;2022-08-19T13:10:23;3.67;;;2.63;;
53666;SDS011;39568;51.026;5.468;2022-08-19T13:12:52;2.65;;;2.42;;
53666;SDS011;39568;51.026;5.468;2022-08-19T13:15:21;5.70;;;3.42;;
53666;SDS011;39568;51.026;5.468;2022-08-19T13:17:50;2.80;;;2.37;;
53666;SDS011;39568;51.026;5.468;2022-08-19T13:20:19;4.05;;;3.17;;
53666;SDS011;39568;51.026;5.468;2022-08-19T13:22:47;6.93;;;2.72;;
53666;SDS011;39568;51.026;5.468;2022-08-19T13:25:15;6.22;;;2.45;;
53666;SDS011;39568;51.026;5.468;2022-08-19T13:27:49;10.95;;;7.47;;
53666;SDS011;39568;51.026;5.468;2022-08-19T13:30:16;7.35;;;5.40;;
53666;SDS011;39568;51.026;5.468;2022-08-19T13:33:02;4.13;;;2.97;;
53666;SDS011;39568;51.026;5.468;2022-08-19T13:35:46;3.17;;;2.92;;
53666;SDS011;39568;51.026;5.468;2022-08-19T13:38:16;2.88;;;2.63;;
53666;SDS011;39568;51.026;5.468;2022-08-19T13:40:57;6.10;;;2.72;;
53666;SDS011;39568;51.026;5.468;2022-08-19T13:43:32;9.85;;;3.35;;
53666;SDS011;39568;51.026;5.468;2022-08-19T13:45:59;4.97;;;3.05;;
53666;SDS011;39568;51.026;5.468;2022-08-19T13:48:28;4.22;;;2.40;;
53666;SDS011;39568;51.026;5.468;2022-08-19T13:50:57;3.70;;;2.20;;
53666;SDS011;39568;51.026;5.468;2022-08-19T13:53:23;9.70;;;3.92;;
53666;SDS011;39568;51.026;5.468;2022-08-19T13:55:50;8.02;;;2.85;;
53666;SDS011;39568;51.026;5.468;2022-08-19T13:58:18;3.25;;;2.65;;
53666;SDS011;39568;51.026;5.468;2022-08-19T14:00:47;6.15;;;3.08;;
53666;SDS011;39568;51.026;5.468;2022-08-19T14:03:32;3.03;;;2.80;;
53666;SDS011;39568;51.026;5.468;2022-08-19T14:05:59;5.43;;;2.85;;
53666;SDS011;39568;51.026;5.468;2022-08-19T14:08:27;3.97;;;2.83;;
53666;SDS011;39568;51.026;5.468;2022-08-19T14:10:57;3.20;;;2.38;;
53666;SDS011;39568;51.026;5.468;2022-08-19T14:13:41;3.25;;;3.03;;
53666;SDS011;39568;51.026;5.468;2022-08-19T14:18:41;7.80;;;2.50;;
53666;SDS011;39568;51.026;5.468;2022-08-19T14:21:14;3.97;;;2.40;;
53666;SDS011;39568;51.026;5.468;2022-08-19T14:23:42;2.95;;;2.45;;
53666;SDS011;39568;51.026;5.468;2022-08-19T14:26:11;6.90;;;2.55;;
53666;SDS011;39568;51.026;5.468;2022-08-19T14:28:40;1.73;;;1.63;;
53666;SDS011;39568;51.026;5.468;2022-08-19T14:31:08;5.88;;;3.30;;
53666;SDS011;39568;51.026;5.468;2022-08-19T14:33:37;0.90;;;0.90;;
53666;SDS011;39568;51.026;5.468;2022-08-19T14:36:05;1.13;;;1.02;;
53666;SDS011;39568;51.026;5.468;2022-08-19T14:38:32;22.20;;;6.57;;
53666;SDS011;39568;51.026;5.468;2022-08-19T14:41:10;7.07;;;3.20;;
53666;SDS011;39568;51.026;5.468;2022-08-19T14:43:41;3.55;;;2.05;;
53666;SDS011;39568;51.026;5.468;2022-08-19T14:46:10;11.50;;;1.83;;
53666;SDS011;39568;51.026;5.468;2022-08-19T14:48:39;2.42;;;2.22;;
53666;SDS011;39568;51.026;5.468;2022-08-19T14:51:06;2.42;;;2.22;;
53666;SDS011;39568;51.026;5.468;2022-08-19T14:53:33;1.48;;;1.38;;
53666;SDS011;39568;51.026;5.468;2022-08-19T14:56:01;0.90;;;0.90;;